createdAt,value
2022-09-23T00:01:38.238Z,2.50
2022-09-23T00:04:06.312Z,2.47
2022-09-23T00:06:34.223Z,2.67
2022-09-23T00:09:02.106Z,2.20
2022-09-23T00:11:30.599Z,2.20
2022-09-23T00:14:00.682Z,2.38
2022-09-23T00:16:30.891Z,2.10
2022-09-23T00:19:00.912Z,2.00
2022-09-23T00:21:29.168Z,1.95
2022-09-23T00:23:57.312Z,2.28
2022-09-23T00:26:25.558Z,2.40
2022-09-23T00:28:53.553Z,1.85
2022-09-23T00:31:23.733Z,2.17
2022-09-23T00:33:55.495Z,2.22
2022-09-23T00:36:25.131Z,2.17
2022-09-23T00:38:53.232Z,2.40
2022-09-23T00:41:22.160Z,2.17
2022-09-23T00:43:52.220Z,1.88
2022-09-23T00:46:23.517Z,1.80
2022-09-23T00:48:59.084Z,2.67
2022-09-23T00:51:34.412Z,2.17
2022-09-23T00:54:03.671Z,2.38
2022-09-23T00:56:33.070Z,2.47
2022-09-23T00:59:02.258Z,2.50
2022-09-23T01:01:30.206Z,2.50
2022-09-23T01:03:59.080Z,2.45
2022-09-23T01:06:29.385Z,2.20
2022-09-23T01:08:57.272Z,2.22
2022-09-23T01:11:41.133Z,2.47
2022-09-23T01:14:37.867Z,2.97
2022-09-23T01:17:10.598Z,2.22
2022-09-23T01:20:06.659Z,2.25
2022-09-23T01:22:43.091Z,2.28
2022-09-23T01:25:37.276Z,2.20
2022-09-23T01:28:23.203Z,2.40
2022-09-23T01:30:58.606Z,2.00
2022-09-23T01:33:34.907Z,2.05
2022-09-23T01:36:16.135Z,2.25
2022-09-23T01:38:53.571Z,2.25
2022-09-23T01:41:37.153Z,2.22
2022-09-23T01:44:10.613Z,2.45
2022-09-23T01:46:44.882Z,2.05
2022-09-23T01:49:18.827Z,1.70
2022-09-23T01:51:50.641Z,2.03
2022-09-23T01:54:24.470Z,2.08
2022-09-23T01:56:58.744Z,1.70
2022-09-23T01:59:32.894Z,2.00
2022-09-23T02:02:08.581Z,1.95
2022-09-23T02:04:41.140Z,1.88
2022-09-23T02:07:15.116Z,2.03
2022-09-23T02:09:47.188Z,2.10
2022-09-23T02:12:20.704Z,1.98
2022-09-23T02:14:54.166Z,1.70
2022-09-23T02:19:58.527Z,1.55
2022-09-23T02:22:30.873Z,1.85
2022-09-23T02:24:59.296Z,1.85
2022-09-23T02:27:32.905Z,2.13
2022-09-23T02:30:08.852Z,1.95
2022-09-23T02:32:48.036Z,1.55
2022-09-23T02:35:22.592Z,2.10
2022-09-23T02:37:58.692Z,1.98
2022-09-23T02:40:35.496Z,1.77
2022-09-23T02:43:08.444Z,1.75
2022-09-23T02:45:38.959Z,2.08
2022-09-23T02:48:14.684Z,1.98
2022-09-23T02:50:42.757Z,1.60
2022-09-23T02:53:10.784Z,1.55
2022-09-23T02:55:38.693Z,1.77
2022-09-23T02:58:06.670Z,1.73
2022-09-23T03:00:57.134Z,1.52
2022-09-23T03:03:41.787Z,2.03
2022-09-23T03:06:25.951Z,1.50
2022-09-23T03:08:59.269Z,1.75
2022-09-23T03:11:27.494Z,2.08
2022-09-23T03:14:07.439Z,1.83
2022-09-23T03:16:43.689Z,1.52
2022-09-23T03:19:26.332Z,1.40
2022-09-23T03:22:02.039Z,1.55
2022-09-23T03:24:32.322Z,1.50
2022-09-23T03:27:04.226Z,1.52
2022-09-23T03:29:37.303Z,1.60
2022-09-23T03:32:08.097Z,1.50
2022-09-23T03:34:39.562Z,1.70
2022-09-23T03:37:14.193Z,1.70
2022-09-23T03:39:45.344Z,1.40
2022-09-23T03:42:18.189Z,1.70
2022-09-23T03:44:47.658Z,1.48
2022-09-23T03:47:17.116Z,1.63
2022-09-23T03:49:48.617Z,1.88
2022-09-23T03:52:17.180Z,1.77
2022-09-23T03:54:45.538Z,1.60
2022-09-23T03:57:14.139Z,1.70
2022-09-23T03:59:42.467Z,1.35
2022-09-23T04:02:11.877Z,1.70
2022-09-23T04:04:41.043Z,1.65
2022-09-23T04:07:11.013Z,1.67
2022-09-23T04:09:39.265Z,1.90
2022-09-23T04:12:07.859Z,1.30
2022-09-23T04:14:35.824Z,1.70
2022-09-23T04:17:03.842Z,1.70
2022-09-23T04:19:31.907Z,1.95
2022-09-23T04:21:59.840Z,1.65
2022-09-23T04:24:29.529Z,1.88
2022-09-23T04:26:58.020Z,1.55
2022-09-23T04:29:27.247Z,1.90
2022-09-23T04:31:55.590Z,1.30
2022-09-23T04:34:23.562Z,3.33
2022-09-23T04:36:51.640Z,1.48
2022-09-23T04:39:19.792Z,1.65
2022-09-23T04:41:49.234Z,1.58
2022-09-23T04:44:17.317Z,1.48
2022-09-23T04:46:47.375Z,1.42
2022-09-23T04:49:21.015Z,1.60
2022-09-23T04:51:49.064Z,1.33
2022-09-23T04:54:16.989Z,1.33
2022-09-23T04:56:44.919Z,1.90
2022-09-23T04:59:14.333Z,1.48
2022-09-23T05:01:42.336Z,1.50
2022-09-23T05:04:13.782Z,1.70
2022-09-23T05:06:45.114Z,1.67
2022-09-23T05:09:17.249Z,1.73
2022-09-23T05:11:46.051Z,1.70
2022-09-23T05:14:15.698Z,1.83
2022-09-23T05:16:43.746Z,1.67
2022-09-23T05:19:13.436Z,1.60
2022-09-23T05:21:41.575Z,1.63
2022-09-23T05:24:09.854Z,1.60
2022-09-23T05:26:38.300Z,1.70
2022-09-23T05:29:06.348Z,1.83
2022-09-23T05:31:36.708Z,1.65
2022-09-23T05:34:06.331Z,1.60
2022-09-23T05:36:39.021Z,1.80
2022-09-23T05:39:08.565Z,1.70
2022-09-23T05:41:37.370Z,1.83
2022-09-23T05:44:05.812Z,1.63
2022-09-23T05:46:35.241Z,1.58
2022-09-23T05:49:04.329Z,1.90
2022-09-23T05:51:33.927Z,1.50
2022-09-23T05:54:03.049Z,1.58
2022-09-23T05:56:32.117Z,2.33
2022-09-23T05:59:02.033Z,1.90
2022-09-23T06:01:33.551Z,1.90
2022-09-23T06:04:05.409Z,1.50
2022-09-23T06:06:35.404Z,1.48
2022-09-23T06:09:04.246Z,1.50
2022-09-23T06:11:33.290Z,1.98
2022-09-23T06:14:04.847Z,1.40
2022-09-23T06:16:35.103Z,1.80
2022-09-23T06:19:06.988Z,1.80
2022-09-23T06:21:37.496Z,1.40
2022-09-23T06:24:06.594Z,1.75
2022-09-23T06:26:35.465Z,1.50
2022-09-23T06:29:04.292Z,1.35
2022-09-23T06:31:32.979Z,1.48
2022-09-23T06:34:12.563Z,1.40
2022-09-23T06:36:44.855Z,1.67
2022-09-23T06:39:14.807Z,1.67
2022-09-23T06:41:42.780Z,1.40
2022-09-23T06:44:14.000Z,1.52
2022-09-23T06:46:42.301Z,7.68
2022-09-23T06:49:13.375Z,4.03
2022-09-23T06:51:42.945Z,1.40
2022-09-23T06:54:11.305Z,1.88
2022-09-23T06:56:40.011Z,1.60
2022-09-23T06:59:10.679Z,1.88
2022-09-23T07:01:38.747Z,1.60
2022-09-23T07:04:07.354Z,1.30
2022-09-23T07:06:35.601Z,1.30
2022-09-23T07:09:06.193Z,1.45
2022-09-23T07:11:34.367Z,1.73
2022-09-23T07:14:02.975Z,1.60
2022-09-23T07:16:31.674Z,1.83
2022-09-23T07:18:59.896Z,1.52
2022-09-23T07:21:30.596Z,1.50
2022-09-23T07:23:58.894Z,1.90
2022-09-23T07:26:29.494Z,1.55
2022-09-23T07:29:04.674Z,1.50
2022-09-23T07:31:39.094Z,1.30
2022-09-23T07:34:08.680Z,1.63
2022-09-23T07:36:40.548Z,1.95
2022-09-23T07:39:09.617Z,1.48
2022-09-23T07:41:39.760Z,1.30
2022-09-23T07:44:08.752Z,2.08
2022-09-23T07:46:37.333Z,1.40
2022-09-23T07:49:06.764Z,1.40
2022-09-23T07:51:37.139Z,1.45
2022-09-23T07:54:08.682Z,1.60
2022-09-23T07:56:37.794Z,1.48
2022-09-23T07:59:09.366Z,1.90
2022-09-23T08:01:39.980Z,4.15
2022-09-23T08:04:11.936Z,1.65
2022-09-23T08:06:42.583Z,1.40
2022-09-23T08:09:11.422Z,1.92
2022-09-23T08:11:42.055Z,1.40
2022-09-23T08:14:13.471Z,1.77
2022-09-23T08:16:41.793Z,1.38
2022-09-23T08:19:10.212Z,1.48
2022-09-23T08:21:39.305Z,1.33
2022-09-23T08:24:08.753Z,2.20
2022-09-23T08:26:37.738Z,1.40
2022-09-23T08:29:09.738Z,1.65
2022-09-23T08:31:39.047Z,1.83
2022-09-23T08:34:07.776Z,1.17
2022-09-23T08:36:36.415Z,1.15
2022-09-23T08:39:05.225Z,1.30
2022-09-23T08:41:40.860Z,1.40
2022-09-23T08:44:14.864Z,1.30
2022-09-23T08:46:49.286Z,1.15
2022-09-23T08:49:25.496Z,1.20
2022-09-23T08:51:56.023Z,1.30
2022-09-23T08:54:32.621Z,2.20
2022-09-23T08:57:04.031Z,1.20
2022-09-23T08:59:41.691Z,1.08
2022-09-23T09:02:19.035Z,0.90
2022-09-23T09:04:50.544Z,1.30
2022-09-23T09:07:38.817Z,1.00
2022-09-23T09:10:16.417Z,0.98
2022-09-23T09:12:46.444Z,1.30
2022-09-23T09:15:16.975Z,1.13
2022-09-23T09:18:01.274Z,1.27
2022-09-23T09:20:52.923Z,1.50
2022-09-23T09:23:24.016Z,1.35
2022-09-23T09:25:54.095Z,1.30
2022-09-23T09:28:32.874Z,1.02
2022-09-23T09:31:06.857Z,1.35
2022-09-23T09:33:45.745Z,1.58
2022-09-23T09:36:30.828Z,1.60
2022-09-23T09:41:32.625Z,1.40
2022-09-23T09:44:03.598Z,1.13
2022-09-23T09:46:54.549Z,1.40
2022-09-23T09:49:36.769Z,1.15
2022-09-23T09:52:29.530Z,1.40
2022-09-23T09:55:17.155Z,1.50
2022-09-23T09:57:50.092Z,1.23
2022-09-23T10:02:53.008Z,1.20
2022-09-23T10:05:31.882Z,1.42
2022-09-23T10:08:23.124Z,1.13
2022-09-23T10:10:54.544Z,1.50
2022-09-23T10:13:24.116Z,1.20
2022-09-23T10:15:54.771Z,1.02
2022-09-23T10:18:30.534Z,1.40
2022-09-23T10:21:07.740Z,1.02
2022-09-23T10:23:41.322Z,1.55
2022-09-23T10:26:11.145Z,1.13
2022-09-23T10:28:47.473Z,1.58
2022-09-23T10:31:17.857Z,1.50
2022-09-23T10:33:50.166Z,1.25
2022-09-23T10:36:19.849Z,1.20
2022-09-23T10:38:52.007Z,1.48
2022-09-23T10:41:50.482Z,1.30
2022-09-23T10:44:49.055Z,1.17
2022-09-23T10:47:32.177Z,1.50
2022-09-23T10:50:15.287Z,1.60
2022-09-23T10:52:57.601Z,1.25
2022-09-23T10:55:38.256Z,1.50
2022-09-23T10:58:28.962Z,1.55
2022-09-23T11:01:14.939Z,1.67
2022-09-23T11:03:58.417Z,1.30
2022-09-23T11:06:35.439Z,1.33
2022-09-23T11:09:20.722Z,1.20
2022-09-23T11:12:03.426Z,1.02
2022-09-23T11:15:16.734Z,1.40
2022-09-23T11:18:16.652Z,1.73
2022-09-23T11:20:52.810Z,1.50
2022-09-23T11:23:48.403Z,1.67
2022-09-23T11:26:33.446Z,1.30
2022-09-23T11:29:18.259Z,1.50
2022-09-23T11:31:59.318Z,1.35
2022-09-23T11:34:55.922Z,1.40
2022-09-23T11:37:29.478Z,2.72
2022-09-23T11:40:03.216Z,2.65
2022-09-23T11:42:36.581Z,1.30
2022-09-23T11:45:18.973Z,1.33
2022-09-23T11:47:53.751Z,1.42
2022-09-23T11:50:28.078Z,1.63
2022-09-23T11:53:03.895Z,2.00
2022-09-23T11:55:49.398Z,1.40
2022-09-23T11:58:27.551Z,1.13
2022-09-23T12:01:01.655Z,1.20
2022-09-23T12:03:45.091Z,1.30
2022-09-23T12:06:19.382Z,1.25
2022-09-23T12:09:01.839Z,1.45
2022-09-23T12:11:38.769Z,1.55
2022-09-23T12:14:19.387Z,1.33
2022-09-23T12:17:14.849Z,1.35
2022-09-23T12:19:59.451Z,1.23
2022-09-23T12:22:50.338Z,1.63
2022-09-23T12:28:05.093Z,1.30
2022-09-23T12:30:39.350Z,1.27
2022-09-23T12:33:12.340Z,1.00
2022-09-23T12:35:46.559Z,1.23
2022-09-23T12:38:19.493Z,1.95
2022-09-23T12:40:48.618Z,1.30
2022-09-23T12:43:19.838Z,1.10
2022-09-23T12:45:51.111Z,1.20
2022-09-23T12:48:59.369Z,1.30
2022-09-23T12:51:28.279Z,1.25
2022-09-23T12:54:24.292Z,1.40
2022-09-23T12:57:03.286Z,1.35
2022-09-23T13:02:26.781Z,1.40
2022-09-23T13:05:17.787Z,1.20
2022-09-23T13:07:48.979Z,1.40
2022-09-23T13:10:23.739Z,1.27
2022-09-23T13:12:53.611Z,1.90
2022-09-23T13:15:29.909Z,1.55
2022-09-23T13:18:50.391Z,1.88
2022-09-23T13:21:40.477Z,1.40
2022-09-23T13:24:21.349Z,1.33
2022-09-23T13:26:52.391Z,1.27
2022-09-23T13:29:27.708Z,1.20
2022-09-23T13:31:58.054Z,1.23
2022-09-23T13:34:30.396Z,1.35
2022-09-23T13:36:59.431Z,1.55
2022-09-23T13:39:30.123Z,1.27
2022-09-23T13:42:03.015Z,1.25
2022-09-23T13:44:31.379Z,1.05
2022-09-23T13:47:03.206Z,1.75
2022-09-23T13:49:35.415Z,1.35
2022-09-23T13:52:04.771Z,1.23
2022-09-23T13:54:36.360Z,1.55
2022-09-23T13:57:04.975Z,1.50
2022-09-23T13:59:38.894Z,1.20
2022-09-23T14:02:11.582Z,1.30
2022-09-23T14:04:40.127Z,1.25
2022-09-23T14:07:10.562Z,1.20
2022-09-23T14:09:43.848Z,1.60
2022-09-23T14:12:12.317Z,1.50
2022-09-23T14:14:41.970Z,1.40
2022-09-23T14:17:15.682Z,1.42
2022-09-23T14:19:43.955Z,1.27
2022-09-23T14:22:24.212Z,1.30
2022-09-23T14:24:55.500Z,1.23
2022-09-23T14:27:29.073Z,1.30
2022-09-23T14:29:57.877Z,1.25
2022-09-23T14:32:28.722Z,1.25
2022-09-23T14:35:17.217Z,1.50
2022-09-23T14:38:05.810Z,1.85
2022-09-23T14:40:38.801Z,1.35
2022-09-23T14:45:41.916Z,1.30
2022-09-23T14:48:15.428Z,1.50
2022-09-23T14:50:49.107Z,1.65
2022-09-23T14:53:36.952Z,1.25
2022-09-23T14:56:20.897Z,1.17
2022-09-23T14:58:53.262Z,1.13
2022-09-23T15:01:39.593Z,1.30
2022-09-23T15:04:14.112Z,1.52
2022-09-23T15:06:47.601Z,1.20
2022-09-23T15:09:21.698Z,1.45
2022-09-23T15:11:52.893Z,1.48
2022-09-23T15:14:37.234Z,1.20
2022-09-23T15:17:14.620Z,1.60
2022-09-23T15:19:42.661Z,1.35
2022-09-23T15:22:11.191Z,1.40
2022-09-23T15:24:44.776Z,1.25
2022-09-23T15:27:30.689Z,1.35
2022-09-23T15:30:17.275Z,1.40
2022-09-23T15:32:45.902Z,1.23
2022-09-23T15:35:16.443Z,1.40
2022-09-23T15:37:44.844Z,1.35
2022-09-23T15:40:20.677Z,1.55
2022-09-23T15:42:52.615Z,1.30
2022-09-23T15:45:22.301Z,1.40
2022-09-23T15:47:52.174Z,1.50
2022-09-23T15:50:20.777Z,1.42
2022-09-23T15:52:48.727Z,1.25
2022-09-23T15:55:18.081Z,1.23
2022-09-23T15:57:45.997Z,1.42
2022-09-23T16:00:16.926Z,1.42
2022-09-23T16:02:47.397Z,1.63
2022-09-23T16:05:23.770Z,1.60
2022-09-23T16:07:53.373Z,1.80
2022-09-23T16:10:23.358Z,1.45
2022-09-23T16:12:54.038Z,1.60
2022-09-23T16:15:25.177Z,1.42
2022-09-23T16:17:53.202Z,1.40
2022-09-23T16:20:21.169Z,1.42
2022-09-23T16:22:54.664Z,1.60
2022-09-23T16:25:25.238Z,1.60
2022-09-23T16:27:55.308Z,1.52
2022-09-23T16:30:25.385Z,1.40
2022-09-23T16:32:53.826Z,1.52
2022-09-23T16:35:22.857Z,1.50
2022-09-23T16:37:51.627Z,1.60
2022-09-23T16:40:21.678Z,1.75
2022-09-23T16:42:52.006Z,1.65
2022-09-23T16:45:22.273Z,1.65
2022-09-23T16:47:52.982Z,1.90
2022-09-23T16:50:23.607Z,1.90
2022-09-23T16:52:54.731Z,1.70
2022-09-23T16:55:25.670Z,1.83
2022-09-23T16:57:54.592Z,1.85
2022-09-23T17:00:41.135Z,1.30
2022-09-23T17:03:30.714Z,1.90
2022-09-23T17:05:59.055Z,1.98
2022-09-23T17:08:26.986Z,1.60
2022-09-23T17:11:00.151Z,1.55
2022-09-23T17:15:57.657Z,2.03
2022-09-23T17:18:27.331Z,2.80
2022-09-23T17:21:00.534Z,2.08
2022-09-23T17:25:56.578Z,1.77
2022-09-23T17:28:25.289Z,1.63
2022-09-23T17:30:58.568Z,2.00
2022-09-23T17:33:29.476Z,2.20
2022-09-23T17:36:00.042Z,1.80
2022-09-23T17:38:29.415Z,1.88
2022-09-23T17:41:01.310Z,1.83
2022-09-23T17:43:31.535Z,2.05
2022-09-23T17:46:05.208Z,2.90
2022-09-23T17:48:36.087Z,2.20
2022-09-23T17:51:06.550Z,6.45
2022-09-23T17:53:37.155Z,6.20
2022-09-23T17:56:06.970Z,2.60
2022-09-23T17:58:36.531Z,2.38
2022-09-23T18:01:05.861Z,2.50
2022-09-23T18:03:35.338Z,3.15
2022-09-23T18:06:08.310Z,3.00
2022-09-23T18:08:36.375Z,3.28
2022-09-23T18:11:12.830Z,3.25
2022-09-23T18:13:40.894Z,3.28
2022-09-23T18:16:08.817Z,2.90
2022-09-23T18:18:38.241Z,3.00
2022-09-23T18:21:07.546Z,3.25
2022-09-23T18:23:36.967Z,3.85
2022-09-23T18:26:05.590Z,3.30
2022-09-23T18:28:35.012Z,3.42
2022-09-23T18:31:03.063Z,4.13
2022-09-23T18:33:31.015Z,3.70
2022-09-23T18:36:02.210Z,3.38
2022-09-23T18:38:30.119Z,5.35
2022-09-23T18:41:00.306Z,3.30
2022-09-23T18:43:37.247Z,4.50
2022-09-23T18:46:09.281Z,3.47
2022-09-23T18:48:54.591Z,4.30
2022-09-23T18:53:57.520Z,4.22
2022-09-23T18:56:27.023Z,4.20
2022-09-23T18:58:56.105Z,4.35
2022-09-23T19:01:25.136Z,4.07
2022-09-23T19:03:56.322Z,3.92
2022-09-23T19:06:26.459Z,3.88
2022-09-23T19:08:56.194Z,4.35
2022-09-23T19:11:24.954Z,4.53
2022-09-23T19:13:56.493Z,4.28
2022-09-23T19:16:25.859Z,4.40
2022-09-23T19:18:54.634Z,4.07
2022-09-23T19:21:24.978Z,4.38
2022-09-23T19:23:55.020Z,4.35
2022-09-23T19:26:25.920Z,4.45
2022-09-23T19:28:55.378Z,4.55
2022-09-23T19:31:25.571Z,5.03
2022-09-23T19:33:56.447Z,4.43
2022-09-23T19:36:28.920Z,4.20
2022-09-23T19:38:58.457Z,4.35
2022-09-23T19:41:28.065Z,4.78
2022-09-23T19:43:58.763Z,4.13
2022-09-23T19:46:27.460Z,5.00
2022-09-23T19:48:56.662Z,5.00
2022-09-23T19:51:25.545Z,4.60
2022-09-23T19:54:00.213Z,4.78
2022-09-23T19:56:29.450Z,4.90
2022-09-23T19:58:58.310Z,5.10
2022-09-23T20:01:27.857Z,5.10
2022-09-23T20:03:56.529Z,4.90
2022-09-23T20:06:25.260Z,4.93
2022-09-23T20:08:53.513Z,4.85
2022-09-23T20:11:28.417Z,5.28
2022-09-23T20:14:01.508Z,4.60
2022-09-23T20:16:34.295Z,4.88
2022-09-23T20:19:04.208Z,5.57
2022-09-23T20:21:33.732Z,5.40
2022-09-23T20:24:04.468Z,5.32
2022-09-23T20:26:51.558Z,5.68
2022-09-23T20:29:19.769Z,4.72
2022-09-23T20:31:48.336Z,4.68
2022-09-23T20:34:16.764Z,4.72
2022-09-23T20:36:45.030Z,4.40
2022-09-23T20:39:13.376Z,4.75
2022-09-23T20:41:42.774Z,4.18
2022-09-23T20:44:14.091Z,5.30
2022-09-23T20:46:48.212Z,4.40
2022-09-23T20:49:18.324Z,4.90
2022-09-23T20:51:48.767Z,4.18
2022-09-23T20:54:18.919Z,5.10
2022-09-23T20:56:49.672Z,4.18
2022-09-23T20:59:18.310Z,4.32
2022-09-23T21:01:47.996Z,4.80
2022-09-23T21:04:16.356Z,4.22
2022-09-23T21:06:44.414Z,4.20
2022-09-23T21:09:12.516Z,4.30
2022-09-23T21:11:40.653Z,4.82
2022-09-23T21:14:11.145Z,4.80
2022-09-23T21:16:40.079Z,4.95
2022-09-23T21:19:08.624Z,4.65
2022-09-23T21:21:36.946Z,4.40
2022-09-23T21:24:33.646Z,4.65
2022-09-23T21:26:54.140Z,4.07
2022-09-23T21:29:23.896Z,4.18
2022-09-23T21:31:52.090Z,4.35
2022-09-23T21:34:20.055Z,3.65
2022-09-23T21:36:49.022Z,3.85
2022-09-23T21:39:17.272Z,3.80
2022-09-23T21:41:45.816Z,2.92
2022-09-23T21:44:14.286Z,3.25
2022-09-23T21:46:44.675Z,3.60
2022-09-23T21:49:13.307Z,3.38
2022-09-23T21:51:42.720Z,3.65
2022-09-23T21:54:14.728Z,3.92
2022-09-23T21:56:44.207Z,3.35
2022-09-23T21:59:13.559Z,3.35
2022-09-23T22:01:49.359Z,3.97
2022-09-23T22:04:22.701Z,3.00
2022-09-23T22:06:53.851Z,3.47
2022-09-23T22:09:22.871Z,4.05
2022-09-23T22:12:08.638Z,3.55
2022-09-23T22:14:39.118Z,3.17
2022-09-23T22:17:10.626Z,2.97
2022-09-23T22:19:45.975Z,3.22
2022-09-23T22:22:17.612Z,3.58
2022-09-23T22:24:47.673Z,3.17
2022-09-23T22:27:19.773Z,3.17
2022-09-23T22:30:05.780Z,3.47
2022-09-23T22:32:41.743Z,3.33
2022-09-23T22:35:11.535Z,3.22
2022-09-23T22:37:40.350Z,3.08
2022-09-23T22:40:11.125Z,3.38
2022-09-23T22:42:41.309Z,3.13
2022-09-23T22:45:12.956Z,3.28
2022-09-23T22:47:45.516Z,2.97
2022-09-23T22:50:15.166Z,3.30
2022-09-23T22:52:43.830Z,3.15
2022-09-23T22:55:12.485Z,4.05
2022-09-23T22:57:40.576Z,3.55
2022-09-23T23:00:12.147Z,3.40
2022-09-23T23:02:40.359Z,3.50
2022-09-23T23:05:10.209Z,3.70
2022-09-23T23:07:38.136Z,2.95
2022-09-23T23:10:10.120Z,3.65
2022-09-23T23:12:39.468Z,2.92
2022-09-23T23:15:09.310Z,3.10
2022-09-23T23:17:38.254Z,3.17
2022-09-23T23:20:09.461Z,3.33
2022-09-23T23:22:37.459Z,2.92
2022-09-23T23:25:06.161Z,2.90
2022-09-23T23:27:35.872Z,3.17
2022-09-23T23:30:04.630Z,3.08
2022-09-23T23:32:32.603Z,2.78
2022-09-23T23:35:00.697Z,2.60
2022-09-23T23:37:31.018Z,2.70
2022-09-23T23:39:58.936Z,3.28
2022-09-23T23:42:28.099Z,2.83
2022-09-23T23:44:56.145Z,2.83
2022-09-23T23:47:24.145Z,2.58
2022-09-23T23:49:52.270Z,3.05
2022-09-23T23:52:20.194Z,3.00
2022-09-23T23:54:49.583Z,3.67
2022-09-23T23:57:17.525Z,3.83
2022-09-23T23:59:45.465Z,3.90
